Time;durP1;ratioP1;P1;durP2;ratioP2;P2;SDS_P1;SDS_P2;PMS_P1;PMS_P2;Temp;Humidity;BMP_temperature;BMP_pressure;BME280_temperature;BME280_humidity;BME280_pressure;Samples;Min_cycle;Max_cycle;Signal;HPM_P1;HPM_P2
2022/05/18 00:00:12;;;;;;;7.90;4.22;;;;;;;17.22;62.33;99563.81;5164020;28;20048;-74
2022/05/18 00:03:12;;;;;;;6.88;3.67;;;;;;;17.04;62.37;99547.13;5161223;28;20090;-71
2022/05/18 00:06:04;;;;;;;8.88;3.85;;;;;;;17.15;62.67;99570.84;5150036;28;20643;-73
2022/05/18 00:08:54;;;;;;;6.63;4.13;;;;;;;17.16;62.76;99572.53;5163991;28;20054;-73
2022/05/18 00:11:44;;;;;;;9.77;4.50;;;;;;;16.97;63.42;99568.41;5156244;28;20432;-73
2022/05/18 00:14:35;;;;;;;5.68;3.88;;;;;;;16.96;62.75;99563.22;5163218;28;20057;-73
2022/05/18 00:17:25;;;;;;;5.43;3.67;;;;;;;16.89;62.30;99574.63;5163280;28;20060;-71
2022/05/18 00:20:16;;;;;;;7.88;4.10;;;;;;;16.81;63.31;99577.28;5163226;28;20076;-70
2022/05/18 00:23:06;;;;;;;8.45;3.92;;;;;;;16.51;62.79;99516.41;5144533;28;20144;-71
2022/05/18 00:25:56;;;;;;;10.75;4.28;;;;;;;16.82;62.66;99573.63;5156816;28;20057;-70
2022/05/18 00:28:46;;;;;;;9.65;5.13;;;;;;;16.93;63.06;99574.28;5164092;28;20057;-71
2022/05/18 00:31:36;;;;;;;9.35;4.50;;;;;;;16.94;63.24;99573.25;5162346;28;20511;-71
2022/05/18 00:34:26;;;;;;;7.68;4.30;;;;;;;16.90;62.31;99576.28;5163150;28;20050;-70
2022/05/18 00:37:17;;;;;;;7.57;4.50;;;;;;;16.96;62.28;99584.66;5144481;28;20054;-71
2022/05/18 00:40:10;;;;;;;7.63;4.65;;;;;;;16.85;62.81;99559.91;5158351;28;20100;-71
2022/05/18 00:43:01;;;;;;;7.25;4.57;;;;;;;16.81;62.93;99590.69;5162931;28;20050;-73
2022/05/18 00:45:51;;;;;;;11.40;4.20;;;;;;;16.58;62.46;99582.47;5162711;28;20094;-73
2022/05/18 00:48:43;;;;;;;9.00;4.07;;;;;;;16.55;62.98;99590.84;5162697;28;20065;-71
2022/05/18 00:51:51;;;;;;;11.35;4.50;;;;;;;16.50;63.34;99581.66;5162033;28;20077;-73
2022/05/18 00:54:42;;;;;;;8.90;4.70;;;;;;;16.51;64.04;99584.16;5162306;28;20112;-71
2022/05/18 00:57:38;;;;;;;8.20;4.80;;;;;;;16.59;63.93;99575.31;5161271;28;20263;-71
2022/05/18 01:00:29;;;;;;;6.20;4.90;;;;;;;16.64;63.99;99572.94;5162234;28;20468;-71
2022/05/18 01:03:21;;;;;;;8.27;4.68;;;;;;;16.56;63.70;99575.63;5162365;28;20085;-72
2022/05/18 01:06:26;;;;;;;11.65;5.40;;;;;;;16.57;63.85;99574.63;5161752;28;20162;-70
2022/05/18 01:09:28;;;;;;;8.40;5.25;;;;;;;16.40;63.09;99555.88;5162561;28;20165;-71
2022/05/18 01:12:21;;;;;;;7.32;5.00;;;;;;;16.32;63.46;99550.53;5161340;28;20417;-71
2022/05/18 01:15:15;;;;;;;7.90;4.65;;;;;;;16.30;62.38;99565.94;5162199;28;20053;-71
2022/05/18 01:18:08;;;;;;;11.15;4.93;;;;;;;16.17;62.86;99570.94;5161746;28;20152;-73
2022/05/18 01:20:58;;;;;;;8.00;5.07;;;;;;;16.07;63.79;99568.41;5149235;28;20412;-72
2022/05/18 01:24:01;;;;;;;8.75;4.50;;;;;;;16.00;62.82;99566.56;5159817;28;20108;-72
2022/05/18 01:26:51;;;;;;;6.35;4.32;;;;;;;16.08;64.27;99585.28;5162189;28;20057;-74
2022/05/18 01:29:41;;;;;;;9.40;5.32;;;;;;;16.20;64.77;99586.66;5162096;28;20114;-73
2022/05/18 01:32:43;;;;;;;9.50;5.65;;;;;;;16.08;64.40;99566.56;5161315;28;20475;-73
2022/05/18 01:35:39;;;;;;;9.85;5.00;;;;;;;16.19;64.50;99585.81;5159794;28;20707;-70
2022/05/18 01:38:29;;;;;;;13.65;5.78;;;;;;;16.01;65.28;99582.44;5162577;28;20050;-72
2022/05/18 01:41:21;;;;;;;10.07;5.13;;;;;;;16.02;65.01;99575.25;5160075;28;20054;-72
2022/05/18 01:44:11;;;;;;;8.95;5.18;;;;;;;16.09;64.85;99593.16;5148159;28;20508;-72
2022/05/18 01:47:02;;;;;;;12.25;5.18;;;;;;;15.96;65.24;99599.00;5161707;28;20061;-71
2022/05/18 01:49:53;;;;;;;6.72;4.60;;;;;;;15.87;64.44;99605.31;5161632;28;20148;-70
2022/05/18 01:52:44;;;;;;;10.00;5.18;;;;;;;16.01;65.19;99584.28;5161391;28;20053;-70
2022/05/18 01:55:34;;;;;;;10.90;5.38;;;;;;;16.06;65.38;99600.66;5161389;28;20118;-74
2022/05/18 01:58:26;;;;;;;10.20;5.28;;;;;;;15.98;65.36;99596.13;5162375;28;20061;-70
2022/05/18 02:01:16;;;;;;;11.35;5.43;;;;;;;15.95;65.47;99602.66;5161233;28;20057;-71
2022/05/18 02:04:07;;;;;;;12.82;5.22;;;;;;;15.87;65.80;99601.81;5145493;28;20057;-70
2022/05/18 02:07:00;;;;;;;15.02;5.47;;;;;;;15.89;66.12;99597.97;5161485;28;20056;-71
2022/05/18 02:09:50;;;;;;;9.77;5.80;;;;;;;15.80;66.37;99558.84;5148991;28;20056;-72
2022/05/18 02:12:40;;;;;;;10.15;5.47;;;;;;;15.88;65.80;99569.53;5161376;28;20140;-73
2022/05/18 02:15:31;;;;;;;11.55;5.68;;;;;;;15.78;65.03;99586.72;5145323;28;20710;-72
2022/05/18 02:18:21;;;;;;;9.98;5.60;;;;;;;15.73;66.13;99587.22;5151912;28;20153;-71
2022/05/18 02:21:12;;;;;;;9.05;5.82;;;;;;;15.74;64.94;99592.41;5160770;28;20533;-70
2022/05/18 02:24:03;;;;;;;7.88;4.95;;;;;;;15.55;65.82;99575.75;5190401;23;20050;-72
2022/05/18 02:26:53;;;;;;;8.35;5.32;;;;;;;15.55;65.60;99594.47;5180573;28;20458;-71
2022/05/18 02:29:43;;;;;;;7.75;5.72;;;;;;;15.68;66.17;99592.22;5167804;28;20060;-72
2022/05/18 02:32:34;;;;;;;9.88;5.60;;;;;;;15.62;66.25;99587.47;5186201;28;20139;-71
2022/05/18 02:35:24;;;;;;;8.10;5.38;;;;;;;15.74;66.67;99595.06;5168606;28;20076;-72
2022/05/18 02:38:14;;;;;;;10.60;6.07;;;;;;;15.67;66.22;99587.88;5202500;28;20061;-71
2022/05/18 02:41:05;;;;;;;10.82;5.82;;;;;;;15.59;65.90;99601.16;5182638;28;20041;-71
2022/05/18 02:43:58;;;;;;;12.75;5.85;;;;;;;15.53;66.93;99610.69;5185793;28;20049;-71
2022/05/18 02:46:48;;;;;;;10.18;5.80;;;;;;;15.47;66.07;99611.31;5182798;28;20076;-71
2022/05/18 02:49:39;;;;;;;8.38;5.50;;;;;;;15.31;65.76;99601.38;5181965;28;20068;-71
2022/05/18 02:52:29;;;;;;;11.63;5.20;;;;;;;15.51;65.37;99624.19;5185956;28;20057;-71
2022/05/18 02:58:28;;;;;;;9.80;5.85;;;;;;;15.27;66.00;99618.72;5205670;28;20061;-71
2022/05/18 03:01:25;;;;;;;13.00;6.22;;;;;;;15.16;66.26;99618.97;5203780;28;20527;-71
2022/05/18 03:04:15;;;;;;;12.00;5.50;;;;;;;15.21;66.23;99614.03;5189035;28;20065;-71
2022/05/18 03:07:06;;;;;;;17.27;6.72;;;;;;;15.41;66.91;99628.81;5179308;28;20051;-71
2022/05/18 03:09:56;;;;;;;13.57;5.90;;;;;;;15.61;65.50;99639.28;5191005;28;20104;-71
2022/05/18 03:12:46;;;;;;;8.98;6.13;;;;;;;15.19;66.72;99622.19;5170697;28;20050;-71
2022/05/18 03:15:37;;;;;;;10.77;6.13;;;;;;;15.22;67.21;99627.22;5185115;28;20049;-71
2022/05/18 03:18:28;;;;;;;12.25;6.80;;;;;;;15.36;66.84;99636.47;5183591;28;20128;-71
2022/05/18 03:24:27;;;;;;;9.75;6.28;;;;;;;15.13;67.61;99635.31;5176190;28;20046;-71
2022/05/18 03:27:17;;;;;;;11.65;5.85;;;;;;;15.03;67.37;99633.63;5179964;28;20108;-71
2022/05/18 03:30:10;;;;;;;12.88;5.70;;;;;;;14.94;66.95;99636.38;5194765;28;20056;-71
2022/05/18 03:33:00;;;;;;;9.52;5.90;;;;;;;14.92;66.70;99607.16;5201380;28;20119;-71
2022/05/18 03:35:50;;;;;;;10.13;5.95;;;;;;;14.90;66.53;99624.31;5182107;28;20107;-71
2022/05/18 03:38:42;;;;;;;7.22;5.53;;;;;;;14.82;67.29;99630.44;5177726;28;20080;-71
2022/05/18 03:41:36;;;;;;;9.43;5.85;;;;;;;14.79;66.49;99639.59;5183347;28;20127;-71
2022/05/18 03:44:26;;;;;;;12.20;5.60;;;;;;;14.77;66.52;99624.75;5192823;28;20207;-71
2022/05/18 03:47:17;;;;;;;12.60;5.57;;;;;;;14.80;67.72;99646.63;5191362;28;20055;-71
2022/05/18 03:50:07;;;;;;;13.20;6.80;;;;;;;14.94;67.39;99642.56;5174097;28;20041;-71
2022/05/18 03:52:58;;;;;;;14.70;6.95;;;;;;;15.11;68.42;99648.84;5174893;28;20053;-71
2022/05/18 03:55:49;;;;;;;12.27;7.28;;;;;;;15.17;67.67;99653.56;5187055;28;20179;-71
2022/05/18 03:58:40;;;;;;;12.20;6.88;;;;;;;15.04;67.88;99639.78;5192162;28;20061;-71
2022/05/18 04:01:31;;;;;;;14.73;6.38;;;;;;;14.96;67.25;99631.72;5183804;28;20140;-71
2022/05/18 04:04:21;;;;;;;14.60;6.70;;;;;;;15.00;67.04;99646.44;5200994;28;20057;-71
2022/05/18 04:07:12;;;;;;;11.50;6.40;;;;;;;15.05;67.23;99652.16;5184118;28;20532;-71
2022/05/18 04:10:03;;;;;;;9.60;6.38;;;;;;;14.95;67.49;99651.41;5191197;28;20054;-74
2022/05/18 04:12:53;;;;;;;14.88;6.85;;;;;;;15.01;68.55;99654.28;5185513;28;20041;-75
2022/05/18 04:15:44;;;;;;;11.70;6.55;;;;;;;15.09;67.60;99671.38;5193692;28;20092;-74
2022/05/18 04:18:36;;;;;;;14.88;6.60;;;;;;;15.02;67.72;99660.47;5197965;28;20137;-73
2022/05/18 04:21:26;;;;;;;12.45;6.07;;;;;;;15.21;67.62;99667.44;5198383;28;20190;-74
2022/05/18 04:24:17;;;;;;;8.40;6.05;;;;;;;15.21;67.95;99676.28;5185740;28;20107;-72
2022/05/18 04:27:07;;;;;;;14.00;6.07;;;;;;;15.19;67.51;99669.44;5186857;28;20060;-72
2022/05/18 04:29:57;;;;;;;13.68;6.32;;;;;;;15.19;66.61;99672.94;5192247;28;20060;-72
2022/05/18 04:32:48;;;;;;;16.33;6.47;;;;;;;15.14;67.84;99672.59;5176272;28;20084;-72
2022/05/18 04:35:40;;;;;;;12.95;8.00;;;;;;;15.42;69.02;99678.59;5184825;28;20168;-72
2022/05/18 04:38:32;;;;;;;13.63;7.28;;;;;;;15.48;68.19;99694.00;5186022;28;20124;-70
2022/05/18 04:41:22;;;;;;;12.18;7.35;;;;;;;15.46;68.50;99696.00;5180308;28;20487;-71
2022/05/18 04:44:12;;;;;;;14.52;7.43;;;;;;;15.42;68.43;99691.94;5184080;28;20191;-72
2022/05/18 04:47:03;;;;;;;15.30;7.65;;;;;;;15.58;68.28;99703.75;5199798;28;20053;-72
2022/05/18 04:49:56;;;;;;;17.85;8.63;;;;;;;15.67;67.72;99701.00;5192492;28;20523;-71
2022/05/18 04:52:46;;;;;;;21.45;8.77;;;;;;;15.73;68.13;99692.34;5182368;28;20500;-70
2022/05/18 04:55:37;;;;;;;32.55;9.60;;;;;;;15.91;67.95;99710.13;5183155;28;20058;-72
2022/05/18 04:58:27;;;;;;;26.70;9.52;;;;;;;15.70;68.42;99700.66;5194713;28;20132;-72
2022/05/18 05:01:17;;;;;;;21.42;8.48;;;;;;;15.84;67.86;99709.09;5187103;28;20060;-71
2022/05/18 05:04:09;;;;;;;21.40;7.88;;;;;;;15.75;67.49;99697.50;5180446;28;20111;-70
2022/05/18 05:07:00;;;;;;;17.63;7.70;;;;;;;15.77;66.85;99703.53;5182380;28;20061;-71
2022/05/18 05:09:50;;;;;;;13.68;7.50;;;;;;;15.84;66.44;99709.94;5189966;28;20060;-71
2022/05/18 05:12:39;;;;;;;19.23;7.85;;;;;;;16.00;66.93;99711.84;5180175;28;20147;-70
2022/05/18 05:15:30;;;;;;;29.40;9.25;;;;;;;15.98;67.51;99703.97;5178954;28;20183;-70
2022/05/18 05:18:21;;;;;;;25.15;10.23;;;;;;;16.17;68.03;99705.53;5183690;28;20139;-70
2022/05/18 05:21:11;;;;;;;18.63;9.50;;;;;;;16.39;67.38;99708.59;5192887;28;20535;-70
2022/05/18 05:24:01;;;;;;;17.33;9.30;;;;;;;16.55;67.82;99713.16;5182155;28;20527;-71
2022/05/18 05:26:50;;;;;;;19.52;9.70;;;;;;;16.78;66.50;99719.56;5175299;28;20050;-71
2022/05/18 05:29:41;;;;;;;18.80;10.10;;;;;;;16.97;66.49;99718.41;5190470;28;20232;-70
2022/05/18 05:32:32;;;;;;;12.63;8.52;;;;;;;17.10;66.43;99718.75;5184257;28;20084;-71
2022/05/18 05:35:22;;;;;;;15.07;9.13;;;;;;;17.33;65.08;99713.53;5198111;28;20591;-71
2022/05/18 05:38:13;;;;;;;16.13;7.80;;;;;;;17.48;64.25;99734.28;5182649;28;20483;-71
2022/05/18 05:41:04;;;;;;;19.67;8.55;;;;;;;17.90;63.21;99722.47;5179835;28;20053;-71
2022/05/18 05:43:57;;;;;;;16.35;8.60;;;;;;;17.93;62.96;99724.81;5160674;28;20072;-70
2022/05/18 05:46:48;;;;;;;12.55;9.02;;;;;;;17.90;63.36;99727.84;5178384;28;20061;-70
2022/05/18 05:49:39;;;;;;;13.18;8.38;;;;;;;17.97;62.60;99721.59;5196835;28;20060;-72
2022/05/18 05:52:30;;;;;;;18.70;7.88;;;;;;;18.14;62.65;99727.75;5172764;28;20060;-70
2022/05/18 05:55:20;;;;;;;13.93;7.30;;;;;;;18.33;60.66;99725.66;5201684;28;20041;-70
2022/05/18 05:58:11;;;;;;;12.85;7.15;;;;;;;18.60;59.67;99721.63;5185533;28;20119;-72
2022/05/18 06:01:04;;;;;;;10.48;6.22;;;;;;;18.66;59.20;99735.19;5174452;28;20131;-71
2022/05/18 06:03:54;;;;;;;13.85;6.10;;;;;;;18.73;59.85;99727.28;5185158;28;20057;-70
2022/05/18 06:06:44;;;;;;;11.52;6.50;;;;;;;19.32;57.59;99737.41;5198714;28;20076;-71
2022/05/18 06:09:35;;;;;;;12.85;6.22;;;;;;;19.33;57.83;99731.81;5200291;28;20085;-70
2022/05/18 06:12:26;;;;;;;12.93;5.82;;;;;;;19.38;58.13;99740.19;5201439;28;20499;-71
2022/05/18 06:15:16;;;;;;;11.73;6.28;;;;;;;19.39;57.92;99727.56;5190151;28;20053;-70
2022/05/18 06:18:07;;;;;;;8.63;5.82;;;;;;;19.46;58.96;99744.66;5184721;28;20061;-71
2022/05/18 06:20:59;;;;;;;10.45;6.28;;;;;;;19.57;57.87;99719.16;5194085;28;20052;-71
2022/05/18 06:23:49;;;;;;;11.90;6.22;;;;;;;19.67;58.55;99725.97;5177342;28;20057;-71
2022/05/18 06:26:39;;;;;;;11.38;6.18;;;;;;;19.88;57.77;99743.25;5191107;28;20569;-71
2022/05/18 06:29:30;;;;;;;12.43;5.45;;;;;;;20.18;56.67;99747.56;5196789;28;20069;-71
2022/05/18 06:32:20;;;;;;;11.45;5.95;;;;;;;19.95;59.12;99750.38;5186993;28;20075;-71
2022/05/18 06:35:11;;;;;;;8.38;5.30;;;;;;;20.34;56.37;99743.00;5186452;28;20432;-71
2022/05/18 06:38:09;;;;;;;10.60;5.72;;;;;;;20.36;57.65;99752.59;5190658;28;20403;-71
2022/05/18 06:41:43;;;;;;;14.52;5.63;;;;;;;20.39;57.25;99751.34;5184382;28;20077;-72
2022/05/18 06:44:14;;;;;;;14.07;6.15;;;;;;;20.65;56.14;99756.25;5201500;28;20049;-71
2022/05/18 06:47:04;;;;;;;11.30;5.53;;;;;;;20.72;56.19;99746.38;5190873;28;20045;-71
2022/05/18 06:49:54;;;;;;;8.05;5.22;;;;;;;21.03;54.41;99742.53;5203309;28;20523;-71
2022/05/18 06:52:45;;;;;;;7.88;4.38;;;;;;;21.10;53.33;99744.25;5194581;28;20104;-71
2022/05/18 06:55:35;;;;;;;18.67;5.78;;;;;;;21.17;55.28;99744.31;5194692;28;20057;-71
2022/05/18 06:58:50;;;;;;;10.23;6.07;;;;;;;21.65;53.72;99746.38;5200856;28;20046;-71
2022/05/18 07:01:41;;;;;;;10.13;5.60;;;;;;;21.91;52.98;99745.72;5190274;28;20132;-70
2022/05/18 07:04:31;;;;;;;12.55;6.25;;;;;;;22.17;52.77;99755.84;5189804;28;20046;-71
2022/05/18 07:07:21;;;;;;;10.77;5.47;;;;;;;23.23;49.21;99748.03;5185130;28;20125;-70
2022/05/18 07:10:11;;;;;;;9.30;6.00;;;;;;;23.96;47.41;99747.16;5198647;28;20092;-71
2022/05/18 07:13:04;;;;;;;16.85;5.57;;;;;;;25.11;45.74;99748.06;5196207;28;20195;-71
2022/05/18 07:15:54;;;;;;;13.38;4.93;;;;;;;25.94;42.91;99752.41;5197126;28;20053;-71
2022/05/18 07:18:47;;;;;;;11.38;4.53;;;;;;;26.43;40.53;99748.69;5190516;28;20096;-71
2022/05/18 07:21:38;;;;;;;7.18;3.90;;;;;;;26.36;42.22;99755.28;5197427;28;20057;-71
2022/05/18 07:24:28;;;;;;;6.43;3.60;;;;;;;26.69;41.99;99747.53;5192356;28;20127;-71
2022/05/18 07:27:19;;;;;;;9.75;4.20;;;;;;;27.36;40.04;99743.81;5193982;28;20429;-71
2022/05/18 07:30:09;;;;;;;10.77;3.42;;;;;;;28.16;38.06;99751.38;5200905;28;20203;-71
2022/05/18 07:33:00;;;;;;;9.27;4.40;;;;;;;28.34;38.30;99728.53;5177024;28;20079;-71
2022/05/18 07:35:51;;;;;;;7.25;3.38;;;;;;;29.03;39.43;99743.00;5173499;28;20538;-71
2022/05/18 07:38:42;;;;;;;6.18;3.85;;;;;;;29.41;36.44;99722.31;5187182;28;20064;-71
2022/05/18 07:41:32;;;;;;;10.52;4.25;;;;;;;29.53;36.65;99730.41;5185430;28;20054;-71
2022/05/18 07:44:23;;;;;;;13.18;4.80;;;;;;;29.60;36.29;99741.19;5200022;28;20180;-71
2022/05/18 07:47:13;;;;;;;6.90;3.83;;;;;;;29.92;36.11;99733.19;5177141;28;20380;-71
2022/05/18 07:50:04;;;;;;;6.68;3.97;;;;;;;29.43;37.71;99705.66;5197663;28;20508;-71
2022/05/18 07:52:58;;;;;;;8.32;3.60;;;;;;;29.56;36.94;99720.88;5196158;28;20445;-71
2022/05/18 07:55:49;;;;;;;8.25;3.55;;;;;;;30.05;36.12;99723.78;5201506;28;20103;-71
2022/05/18 07:58:40;;;;;;;7.50;3.28;;;;;;;30.23;35.27;99722.66;5190449;28;20140;-71
2022/05/18 08:01:30;;;;;;;8.80;3.25;;;;;;;30.61;34.72;99727.22;5172920;28;20049;-72
2022/05/18 08:04:21;;;;;;;8.43;3.13;;;;;;;30.54;35.44;99730.16;5188881;28;20056;-71
2022/05/18 08:07:11;;;;;;;7.72;3.33;;;;;;;31.08;33.43;99729.31;5196082;28;20115;-71
2022/05/18 08:16:25;;;;;;;7.07;3.42;;;;;;;31.69;34.84;99728.97;5195684;28;20061;-71
2022/05/18 08:19:15;;;;;;;7.60;2.78;;;;;;;32.22;32.12;99727.91;5161600;28;20050;-71
2022/05/18 08:22:06;;;;;;;6.85;2.95;;;;;;;32.59;33.73;99735.19;5183078;28;20053;-71
2022/05/18 08:24:56;;;;;;;4.15;2.45;;;;;;;31.87;32.32;99736.78;5201567;28;20103;-71
2022/05/18 08:27:49;;;;;;;5.05;2.80;;;;;;;31.98;33.63;99732.19;5186444;28;20578;-71
2022/05/18 08:30:40;;;;;;;6.63;2.90;;;;;;;32.68;31.24;99721.75;5193691;28;20068;-71
2022/05/18 08:33:34;;;;;;;8.32;2.90;;;;;;;32.81;30.01;99725.88;5185767;28;20056;-71
2022/05/18 08:36:26;;;;;;;5.93;2.80;;;;;;;31.79;32.12;99732.63;5184129;28;20051;-72
2022/05/18 08:39:17;;;;;;;8.63;3.22;;;;;;;32.80;32.89;99716.00;5197111;28;20312;-71
2022/05/18 08:42:08;;;;;;;5.07;3.08;;;;;;;32.35;31.17;99731.25;5186319;28;20058;-71
2022/05/18 08:44:58;;;;;;;8.23;2.45;;;;;;;32.65;30.81;99731.38;5176039;28;20694;-72
2022/05/18 08:48:05;;;;;;;6.38;2.65;;;;;;;31.96;32.96;99734.38;5173793;28;20052;-72
2022/05/18 08:51:03;;;;;;;5.07;2.97;;;;;;;32.88;28.79;99729.19;5169393;28;20530;-71
2022/05/18 08:54:56;;;;;;;10.93;2.67;;;;;;;31.58;31.00;99719.88;5177329;28;20053;-72
2022/05/18 08:57:48;;;;;;;5.88;2.70;;;;;;;32.44;30.44;99725.00;5179131;28;20062;-71
2022/05/18 09:00:48;;;;;;;6.25;3.15;;;;;;;32.13;29.35;99724.03;5173149;28;20054;-71
2022/05/18 09:03:43;;;;;;;3.47;2.70;;;;;;;33.09;30.22;99722.66;5165557;28;20064;-71
2022/05/18 09:06:42;;;;;;;3.85;2.53;;;;;;;33.18;31.35;99722.94;5168806;28;20151;-72
2022/05/18 09:12:57;;;;;;;4.47;2.83;;;;;;;33.40;27.78;99726.19;5172656;28;20506;-72
2022/05/18 09:15:57;;;;;;;4.97;2.50;;;;;;;33.17;28.49;99729.50;5166016;28;20167;-72
2022/05/18 09:18:47;;;;;;;7.65;2.80;;;;;;;32.66;30.64;99732.19;5172219;28;20056;-71
2022/05/18 09:22:22;;;;;;;3.80;2.40;;;;;;;33.06;29.64;99722.38;5164691;28;20057;-71
2022/05/18 09:25:12;;;;;;;4.50;2.40;;;;;;;33.35;30.04;99728.97;5165170;28;20057;-71
2022/05/18 09:28:18;;;;;;;5.18;2.85;;;;;;;33.18;28.44;99718.25;5167559;28;20068;-72
2022/05/18 09:31:39;;;;;;;3.72;2.33;;;;;;;33.54;31.74;99729.22;5168525;28;20135;-72
2022/05/18 09:34:36;;;;;;;5.57;3.30;;;;;;;32.28;29.85;99729.59;5166167;28;20046;-71
2022/05/18 09:37:55;;;;;;;4.78;2.60;;;;;;;33.46;30.76;99727.03;5167556;28;20207;-70
2022/05/18 09:40:48;;;;;;;7.28;2.92;;;;;;;32.80;32.02;99722.31;5175804;28;20056;-71
2022/05/18 09:43:46;;;;;;;5.50;2.55;;;;;;;33.41;28.93;99725.13;5173121;28;20554;-71
2022/05/18 09:46:37;;;;;;;5.53;2.70;;;;;;;33.49;27.85;99712.75;5168589;28;20308;-72
2022/05/18 09:49:40;;;;;;;6.43;2.78;;;;;;;33.31;27.77;99713.28;5163353;28;20945;-72
2022/05/18 09:52:31;;;;;;;5.75;2.92;;;;;;;32.99;27.98;99703.44;5176053;28;20046;-72
2022/05/18 09:55:24;;;;;;;9.05;4.93;;;;;;;33.11;30.19;99711.38;5170926;28;20499;-72
2022/05/18 09:58:21;;;;;;;3.00;2.22;;;;;;;32.70;28.43;99712.16;5152190;28;20064;-71
2022/05/18 10:07:44;;;;;;;3.22;2.40;;;;;;;33.50;29.29;99691.59;5167543;28;20521;-71
2022/05/18 10:10:36;;;;;;;4.55;2.50;;;;;;;33.51;26.96;99683.06;5163491;28;20152;-72
2022/05/18 10:13:32;;;;;;;5.15;2.28;;;;;;;33.15;29.98;99683.09;5175297;28;20088;-72
2022/05/18 10:16:36;;;;;;;3.45;2.40;;;;;;;32.94;30.90;99684.97;5180529;28;20132;-72
2022/05/18 10:19:31;;;;;;;5.60;2.38;;;;;;;33.08;30.11;99682.56;5168694;28;20053;-71
2022/05/18 10:22:28;;;;;;;5.85;2.25;;;;;;;33.56;30.39;99669.28;5158058;28;20523;-71
2022/05/18 10:25:28;;;;;;;5.05;2.58;;;;;;;31.99;29.05;99685.31;5153236;28;20211;-71
2022/05/18 10:28:28;;;;;;;4.88;2.17;;;;;;;32.65;28.25;99673.72;5167325;28;20524;-71
2022/05/18 10:31:35;;;;;;;5.38;2.70;;;;;;;32.90;31.58;99672.06;5168501;28;20487;-71
2022/05/18 10:34:29;;;;;;;3.92;2.42;;;;;;;32.85;29.57;99677.53;5174416;28;20486;-71
2022/05/18 10:37:32;;;;;;;5.78;2.22;;;;;;;33.30;31.31;99670.41;5169495;28;20053;-71
2022/05/18 10:40:22;;;;;;;3.40;1.90;;;;;;;32.36;27.79;99673.34;5162264;28;20659;-72
2022/05/18 10:43:34;;;;;;;4.47;2.03;;;;;;;32.68;30.52;99675.91;5161327;28;20066;-73
2022/05/18 10:46:46;;;;;;;3.05;2.10;;;;;;;32.34;27.93;99677.44;5163586;28;20068;-71
2022/05/18 10:49:37;;;;;;;3.38;2.38;;;;;;;32.50;29.38;99663.53;5158266;28;20123;-73
2022/05/18 10:52:33;;;;;;;6.63;2.42;;;;;;;32.21;30.65;99668.63;5161611;28;20100;-72
2022/05/18 10:55:25;;;;;;;4.88;2.35;;;;;;;32.60;28.74;99662.72;5174050;28;20806;-73
2022/05/18 10:58:44;;;;;;;3.53;2.00;;;;;;;32.77;28.18;99650.66;5172097;28;20056;-74
2022/05/18 11:01:46;;;;;;;4.03;1.98;;;;;;;31.93;31.00;99661.69;5168842;28;20523;-73
2022/05/18 11:04:41;;;;;;;5.82;2.22;;;;;;;31.97;29.17;99662.78;5174323;28;20086;-72
2022/05/18 11:07:32;;;;;;;3.30;2.05;;;;;;;32.23;29.02;99646.44;5177600;28;20091;-71
2022/05/18 11:10:32;;;;;;;3.50;1.90;;;;;;;31.47;29.72;99642.25;5195304;28;20056;-71
2022/05/18 11:13:45;;;;;;;3.00;1.80;;;;;;;31.70;29.47;99651.97;5194498;28;20511;-70
2022/05/18 11:17:13;;;;;;;3.27;1.70;;;;;;;32.30;26.67;99641.50;5184799;28;20615;-75
2022/05/18 11:20:16;;;;;;;3.80;1.80;;;;;;;31.74;28.42;99633.06;5188797;28;20288;-72
2022/05/18 11:23:29;;;;;;;2.60;1.70;;;;;;;31.95;28.01;99633.97;5185736;28;20047;-72
2022/05/18 11:26:41;;;;;;;5.87;1.83;;;;;;;31.09;29.31;99640.59;5170565;28;20436;-72
2022/05/18 11:30:01;;;;;;;3.53;2.00;;;;;;;31.03;29.40;99627.97;5184677;28;20057;-73
2022/05/18 11:33:04;;;;;;;3.88;1.88;;;;;;;31.43;29.02;99630.16;5161454;28;20115;-72
2022/05/18 11:36:13;;;;;;;4.45;1.60;;;;;;;31.56;29.40;99631.63;5171439;28;20060;-72
2022/05/18 11:39:17;;;;;;;6.22;1.50;;;;;;;31.90;29.56;99626.56;5178182;28;20061;-72
2022/05/18 11:42:30;;;;;;;4.43;1.75;;;;;;;31.73;27.80;99621.28;5174056;28;20076;-71
2022/05/18 11:45:25;;;;;;;5.70;2.05;;;;;;;31.12;28.81;99623.63;5169364;28;20065;-72
2022/05/18 11:48:54;;;;;;;2.15;1.80;;;;;;;31.17;29.48;99622.84;5166571;28;20057;-72
2022/05/18 11:52:00;;;;;;;3.45;1.70;;;;;;;30.53;31.43;99618.19;5171842;28;20086;-73
2022/05/18 11:55:09;;;;;;;2.53;1.80;;;;;;;31.47;29.95;99614.84;5176862;28;20601;-72
2022/05/18 11:58:13;;;;;;;5.65;2.08;;;;;;;31.11;30.85;99613.78;5167751;28;20069;-71
2022/05/18 12:01:09;;;;;;;;;;;;;;;31.26;30.41;99608.41;5170998;28;20097;-71
2022/05/18 12:04:18;;;;;;;3.85;1.70;;;;;;;31.20;29.65;99594.94;5170302;28;20576;-72
2022/05/18 12:07:16;;;;;;;1.92;1.42;;;;;;;31.65;28.18;99590.78;5174435;28;20516;-72
2022/05/18 12:10:23;;;;;;;3.58;1.95;;;;;;;30.39;28.38;99584.97;5176033;28;20080;-75
2022/05/18 12:13:13;;;;;;;4.10;1.92;;;;;;;31.08;30.49;99589.66;5164055;28;20068;-72
2022/05/18 12:16:10;;;;;;;6.00;1.63;;;;;;;30.29;30.67;99582.94;5171899;28;20260;-72
2022/05/18 12:19:05;;;;;;;3.75;1.90;;;;;;;30.76;29.47;99585.06;5166929;28;21776;-72
2022/05/18 12:21:59;;;;;;;4.25;1.67;;;;;;;30.66;28.51;99582.19;5166149;28;20528;-73
2022/05/18 12:24:52;;;;;;;4.18;1.90;;;;;;;30.45;28.98;99585.84;5177312;28;20737;-74
2022/05/18 12:27:43;;;;;;;4.07;1.70;;;;;;;30.00;28.86;99581.53;5171574;28;20424;-73
2022/05/18 12:30:37;;;;;;;3.72;1.58;;;;;;;30.05;28.68;99578.88;5170654;28;20092;-73
2022/05/18 12:33:32;;;;;;;4.20;1.63;;;;;;;29.56;28.89;99578.81;5168391;28;20066;-72
2022/05/18 12:36:31;;;;;;;3.90;1.42;;;;;;;30.02;29.09;99571.16;5168965;28;20064;-73
2022/05/18 12:39:25;;;;;;;3.65;1.70;;;;;;;30.42;30.06;99573.50;5169444;28;20295;-73
2022/05/18 12:42:22;;;;;;;4.35;1.75;;;;;;;30.02;29.89;99550.13;5178267;28;20488;-72
2022/05/18 12:45:32;;;;;;;5.10;1.80;;;;;;;30.00;30.97;99576.06;5161986;28;20045;-73
2022/05/18 12:48:30;;;;;;;4.63;1.83;;;;;;;30.02;29.65;99574.72;5169801;28;20728;-73
2022/05/18 12:51:26;;;;;;;2.40;1.60;;;;;;;29.70;30.35;99571.91;5169841;28;20562;-75
2022/05/18 12:54:29;;;;;;;3.70;1.70;;;;;;;29.45;30.83;99572.38;5173412;28;20200;-72
2022/05/18 12:57:42;;;;;;;3.10;1.73;;;;;;;29.60;31.17;99569.03;5170776;28;20447;-73
2022/05/18 13:00:32;;;;;;;4.00;1.42;;;;;;;29.95;30.31;99569.47;5165718;28;20591;-73
2022/05/18 13:03:31;;;;;;;12.63;1.85;;;;;;;29.87;29.20;99564.47;5166992;28;20448;-72
2022/05/18 13:06:39;;;;;;;4.07;2.10;;;;;;;29.61;30.89;99567.97;5170298;28;20515;-71
2022/05/18 13:09:35;;;;;;;2.85;1.63;;;;;;;29.96;30.97;99557.44;5167036;28;20065;-71
2022/05/18 13:12:30;;;;;;;3.97;1.90;;;;;;;29.78;31.63;99565.19;5169770;28;20511;-74
2022/05/18 13:15:21;;;;;;;5.05;2.50;;;;;;;29.50;30.89;99562.38;5170293;28;20135;-74
2022/05/18 13:18:37;;;;;;;2.65;1.45;;;;;;;29.55;31.36;99566.22;5150385;28;20519;-73
2022/05/18 13:21:28;;;;;;;4.40;1.77;;;;;;;29.79;30.10;99558.63;5160921;28;20129;-74
2022/05/18 13:24:23;;;;;;;4.72;1.70;;;;;;;29.95;29.03;99555.78;5164838;28;20085;-71
2022/05/18 13:27:19;;;;;;;2.97;1.63;;;;;;;29.65;29.25;99559.00;5165918;28;20109;-74
2022/05/18 13:30:26;;;;;;;5.15;1.65;;;;;;;29.81;28.81;99540.88;5174125;28;20414;-72
2022/05/18 13:33:16;;;;;;;4.50;1.55;;;;;;;29.43;30.40;99550.78;5167482;28;20085;-74
2022/05/18 13:36:06;;;;;;;4.55;1.63;;;;;;;29.44;31.12;99546.97;5174273;28;20056;-72
2022/05/18 13:38:56;;;;;;;3.70;1.70;;;;;;;29.58;29.96;99532.94;5168585;28;20128;-74
2022/05/18 13:41:48;;;;;;;3.90;1.75;;;;;;;29.64;29.99;99543.69;5168454;28;20064;-73
2022/05/18 13:44:39;;;;;;;4.95;1.77;;;;;;;29.87;30.06;99542.59;5176174;28;20057;-74
2022/05/18 13:47:42;;;;;;;3.80;1.75;;;;;;;29.90;29.19;99547.56;5171679;28;20046;-73
2022/05/18 13:50:39;;;;;;;5.13;1.52;;;;;;;29.73;29.89;99539.44;5166893;28;20076;-72
2022/05/18 13:53:38;;;;;;;2.13;1.52;;;;;;;30.00;29.31;99535.03;5166785;28;20111;-73
2022/05/18 13:56:34;;;;;;;3.85;1.70;;;;;;;29.74;29.10;99521.13;5160469;28;20057;-73
2022/05/18 13:59:30;;;;;;;4.60;1.58;;;;;;;30.02;28.73;99519.22;5173033;28;20076;-73
2022/05/18 14:02:27;;;;;;;1.92;1.63;;;;;;;29.62;30.01;99521.25;5177655;28;20092;-73